Time;durP1;ratioP1;P1;durP2;ratioP2;P2;SDS_P1;SDS_P2;PMS_P1;PMS_P2;Temp;Humidity;BMP_temperature;BMP_pressure;BME280_temperature;BME280_humidity;BME280_pressure;Samples;Min_cycle;Max_cycle;Signal;HPM_P1;HPM_P2
2022/08/19 00:00:21;;;;;;;10.95;9.95;;;22.20;55.80;;;;;;5012950;28;20066;-45
2022/08/19 00:02:48;;;;;;;11.40;10.35;;;22.10;55.80;;;;;;5019465;28;20046;-46
2022/08/19 00:05:20;;;;;;;11.75;10.52;;;22.10;55.90;;;;;;5021863;28;20053;-49
2022/08/19 00:07:50;;;;;;;11.07;9.98;;;22.10;56.00;;;;;;5022102;28;20100;-44
2022/08/19 00:10:20;;;;;;;10.90;9.90;;;22.10;56.00;;;;;;5009934;28;20038;-48
2022/08/19 00:12:51;;;;;;;11.93;9.77;;;22.00;56.00;;;;;;5018032;28;20713;-46
2022/08/19 00:15:20;;;;;;;10.82;9.82;;;22.00;56.20;;;;;;5028793;28;20045;-49
2022/08/19 00:17:47;;;;;;;10.73;9.77;;;21.90;56.30;;;;;;5016947;28;20042;-47
2022/08/19 00:20:22;;;;;;;10.35;9.38;;;21.90;56.30;;;;;;5025849;28;20509;-46
2022/08/19 00:22:51;;;;;;;10.23;9.20;;;21.90;56.30;;;;;;5026320;28;20053;-47
2022/08/19 00:25:18;;;;;;;10.15;9.15;;;21.90;56.30;;;;;;5029164;28;20103;-46
2022/08/19 00:27:56;;;;;;;10.75;9.77;;;21.80;56.20;;;;;;5007357;28;20045;-47
2022/08/19 00:30:23;;;;;;;11.48;10.38;;;21.80;56.20;;;;;;5021535;28;20462;-48
2022/08/19 00:32:50;;;;;;;11.02;9.95;;;21.70;56.30;;;;;;5021997;28;20045;-45
2022/08/19 00:35:18;;;;;;;11.32;10.32;;;21.70;56.40;;;;;;5029293;28;20525;-47
2022/08/19 00:37:51;;;;;;;11.05;9.95;;;21.70;56.30;;;;;;5011742;28;20046;-46
2022/08/19 00:40:19;;;;;;;11.02;10.02;;;21.70;56.50;;;;;;5023547;28;20042;-47
2022/08/19 00:42:46;;;;;;;11.93;10.82;;;21.60;56.50;;;;;;5025806;28;20045;-47
2022/08/19 00:45:20;;;;;;;11.10;10.10;;;21.60;56.80;;;;;;5029142;28;20053;-46
2022/08/19 00:47:47;;;;;;;10.98;9.90;;;21.60;57.10;;;;;;5015473;28;20594;-48
2022/08/19 00:50:18;;;;;;;11.77;10.55;;;21.50;56.70;;;;;;5020605;28;20046;-44
2022/08/19 00:52:50;;;;;;;11.20;10.20;;;21.50;56.80;;;;;;5030143;28;20083;-48
2022/08/19 00:55:27;;;;;;;11.80;10.70;;;21.50;56.80;;;;;;5022915;28;20068;-48
2022/08/19 00:58:00;;;;;;;11.50;10.40;;;21.40;56.90;;;;;;5023877;28;20037;-48
2022/08/19 01:00:28;;;;;;;11.38;10.27;;;21.40;57.00;;;;;;5022372;28;20110;-48
2022/08/19 01:02:56;;;;;;;12.40;11.10;;;21.30;56.70;;;;;;5030085;28;20057;-47
2022/08/19 01:05:29;;;;;;;11.75;10.57;;;21.30;56.70;;;;;;5019740;28;20494;-48
2022/08/19 01:08:02;;;;;;;11.45;10.20;;;21.30;56.80;;;;;;5005560;28;20037;-48
2022/08/19 01:10:35;;;;;;;12.23;11.00;;;21.20;56.50;;;;;;5022894;28;20072;-45
2022/08/19 01:13:03;;;;;;;11.77;10.30;;;21.20;56.60;;;;;;5029843;28;20498;-47
2022/08/19 01:15:35;;;;;;;13.23;11.82;;;21.20;56.70;;;;;;5013761;28;20045;-48
2022/08/19 01:18:10;;;;;;;10.97;9.97;;;21.10;57.00;;;;;;5019801;28;20042;-45
2022/08/19 01:20:41;;;;;;;11.73;10.38;;;21.10;57.20;;;;;;5029495;28;20034;-46
2022/08/19 01:23:08;;;;;;;11.82;10.68;;;21.10;56.90;;;;;;5027895;28;20037;-45
2022/08/19 01:25:43;;;;;;;12.43;10.00;;;21.10;57.10;;;;;;5008677;28;20049;-47
2022/08/19 01:28:31;;;;;;;11.45;10.48;;;21.00;57.30;;;;;;5024082;28;20046;-52
2022/08/19 01:31:15;;;;;;;11.65;10.57;;;21.00;57.60;;;;;;5033385;28;20052;-49
2022/08/19 01:33:57;;;;;;;11.75;10.43;;;21.00;57.50;;;;;;4999550;28;20042;-51
2022/08/19 01:36:49;;;;;;;11.23;10.20;;;20.90;57.40;;;;;;5028779;28;20046;-51
2022/08/19 01:39:24;;;;;;;11.65;10.60;;;21.00;57.80;;;;;;5012589;28;20564;-50
2022/08/19 01:41:54;;;;;;;12.38;11.23;;;20.90;57.30;;;;;;5009206;28;20523;-47
2022/08/19 01:44:23;;;;;;;12.50;11.32;;;20.90;57.30;;;;;;5018502;28;20422;-51
2022/08/19 01:46:51;;;;;;;13.07;11.88;;;20.80;57.60;;;;;;5022243;28;20049;-49
2022/08/19 01:49:20;;;;;;;15.32;12.02;;;20.80;57.70;;;;;;5032394;28;20049;-47
2022/08/19 01:51:51;;;;;;;14.15;12.65;;;20.80;57.70;;;;;;5018221;28;20625;-49
2022/08/19 01:54:23;;;;;;;16.23;12.75;;;20.70;57.40;;;;;;5013457;28;20124;-51
2022/08/19 01:57:00;;;;;;;14.13;12.70;;;20.80;57.40;;;;;;5012306;28;20091;-47
2022/08/19 01:59:31;;;;;;;12.65;11.43;;;20.70;58.20;;;;;;5003909;28;20052;-50
2022/08/19 02:01:58;;;;;;;13.63;12.32;;;20.70;57.40;;;;;;5013919;28;20046;-47
2022/08/19 02:04:27;;;;;;;13.55;12.15;;;20.60;57.40;;;;;;5025756;28;20112;-47
2022/08/19 02:06:54;;;;;;;13.68;12.38;;;20.60;57.70;;;;;;5028548;28;20556;-50
2022/08/19 02:09:23;;;;;;;15.55;13.63;;;20.60;57.70;;;;;;5024908;28;20440;-48
2022/08/19 02:11:50;;;;;;;13.75;12.40;;;20.60;57.70;;;;;;5028042;28;20053;-48
2022/08/19 02:14:19;;;;;;;14.38;12.85;;;20.60;57.80;;;;;;5024692;28;20530;-49
2022/08/19 02:16:46;;;;;;;14.98;13.48;;;20.60;57.90;;;;;;5032164;28;20046;-50
2022/08/19 02:19:15;;;;;;;16.75;14.93;;;20.50;58.00;;;;;;5019792;28;20069;-49
2022/08/19 02:21:44;;;;;;;16.35;14.70;;;20.50;58.30;;;;;;5018878;28;20064;-46
2022/08/19 02:24:12;;;;;;;18.50;16.60;;;20.50;58.90;;;;;;5023156;28;20136;-47
2022/08/19 02:26:39;;;;;;;21.13;17.75;;;20.50;59.00;;;;;;5032249;28;20057;-49
2022/08/19 02:29:12;;;;;;;19.73;16.92;;;20.50;59.20;;;;;;5015666;28;20065;-51
2022/08/19 02:31:39;;;;;;;23.42;20.75;;;20.50;59.30;;;;;;5024263;28;20053;-47
2022/08/19 02:34:09;;;;;;;28.10;23.65;;;20.50;60.70;;;;;;5030446;28;20072;-50
2022/08/19 02:36:36;;;;;;;26.45;23.25;;;20.50;61.60;;;;;;5025148;28;20045;-49
2022/08/19 02:39:13;;;;;;;23.77;21.33;;;20.50;61.70;;;;;;5016938;28;20116;-53
2022/08/19 02:41:42;;;;;;;28.88;25.77;;;20.60;61.50;;;;;;5022258;28;20080;-48
2022/08/19 02:44:08;;;;;;;30.48;25.92;;;20.60;62.10;;;;;;5023932;28;20056;-51
2022/08/19 02:46:56;;;;;;;29.70;25.48;;;20.60;62.60;;;;;;5018293;28;20053;-46
2022/08/19 02:49:31;;;;;;;31.73;26.77;;;20.60;62.50;;;;;;5027049;28;20096;-50
2022/08/19 02:52:00;;;;;;;27.55;24.38;;;20.70;63.10;;;;;;5030372;28;20104;-47
2022/08/19 02:54:28;;;;;;;31.20;26.95;;;20.70;62.50;;;;;;5025901;28;20459;-53
2022/08/19 02:56:57;;;;;;;29.42;26.25;;;20.70;63.20;;;;;;5013724;28;20045;-49
2022/08/19 02:59:29;;;;;;;29.00;25.85;;;20.80;63.70;;;;;;5014765;28;20422;-51
2022/08/19 03:01:56;;;;;;;29.10;26.00;;;20.80;62.80;;;;;;5020222;28;20600;-49
2022/08/19 03:04:24;;;;;;;29.52;26.45;;;20.80;62.40;;;;;;5032011;28;20107;-52
2022/08/19 03:07:00;;;;;;;30.17;25.20;;;20.90;62.60;;;;;;5022882;28;20045;-49
2022/08/19 03:09:37;;;;;;;30.90;26.63;;;20.90;62.60;;;;;;5020830;28;20080;-51
2022/08/19 03:12:04;;;;;;;28.38;25.27;;;20.90;63.20;;;;;;5024596;28;20050;-52
2022/08/19 03:14:37;;;;;;;30.80;26.60;;;20.90;63.10;;;;;;5028494;28;20104;-50
2022/08/19 03:17:06;;;;;;;29.67;25.73;;;20.90;63.50;;;;;;5009222;28;20069;-49
2022/08/19 03:19:35;;;;;;;27.75;24.77;;;20.90;63.30;;;;;;5022691;28;20646;-51
2022/08/19 03:22:07;;;;;;;27.27;23.90;;;20.90;63.20;;;;;;5030618;28;20038;-48
2022/08/19 03:24:37;;;;;;;28.30;23.15;;;21.00;63.00;;;;;;5025000;28;20046;-48
2022/08/19 03:27:05;;;;;;;28.20;25.17;;;21.00;63.10;;;;;;5013100;28;20418;-51
2022/08/19 03:29:32;;;;;;;29.42;25.38;;;21.00;63.50;;;;;;5017231;28;20046;-48
2022/08/19 03:32:09;;;;;;;29.52;25.80;;;21.00;63.80;;;;;;5024249;28;20045;-47
2022/08/19 03:34:55;;;;;;;27.95;23.38;;;21.00;63.90;;;;;;5022836;28;20100;-50
2022/08/19 03:37:23;;;;;;;27.95;23.38;;;21.00;63.10;;;;;;5003003;28;20517;-48
2022/08/19 03:39:51;;;;;;;29.23;25.55;;;21.00;62.80;;;;;;5022920;28;20041;-49
2022/08/19 03:42:20;;;;;;;28.02;24.42;;;21.00;63.20;;;;;;5032235;28;20080;-51
2022/08/19 03:45:12;;;;;;;27.20;22.73;;;21.00;63.60;;;;;;5020195;28;20081;-51
2022/08/19 03:47:39;;;;;;;30.92;26.77;;;21.00;63.40;;;;;;4997336;28;20061;-48
2022/08/19 03:50:06;;;;;;;29.85;25.95;;;21.00;63.90;;;;;;5022008;28;20080;-48
2022/08/19 03:52:33;;;;;;;30.73;27.02;;;21.00;64.40;;;;;;5022561;28;20129;-47
2022/08/19 03:55:02;;;;;;;30.98;27.13;;;21.00;64.70;;;;;;5009581;28;20521;-48
2022/08/19 03:57:32;;;;;;;33.05;26.75;;;21.00;64.70;;;;;;5020600;28;20045;-52
2022/08/19 03:59:59;;;;;;;31.17;27.08;;;21.00;65.00;;;;;;5027695;28;20616;-48
2022/08/19 04:02:41;;;;;;;30.23;26.77;;;21.00;65.20;;;;;;5030709;28;20099;-46
2022/08/19 04:05:21;;;;;;;;;;;20.90;65.20;;;;;;5008193;28;20103;-47
2022/08/19 04:07:53;;;;;;;29.92;24.52;;;21.00;64.70;;;;;;5019751;28;19921;-50
2022/08/19 04:10:20;;;;;;;30.92;27.27;;;21.00;64.40;;;;;;4990838;28;20046;-47
2022/08/19 04:12:49;;;;;;;32.15;26.85;;;21.00;65.00;;;;;;4998116;28;20134;-48
2022/08/19 04:15:19;;;;;;;33.88;27.20;;;21.00;65.20;;;;;;5020991;28;20030;-50
2022/08/19 04:17:46;;;;;;;34.67;27.10;;;20.90;65.40;;;;;;5005494;28;20091;-49
2022/08/19 04:20:13;;;;;;;29.98;25.45;;;20.90;65.50;;;;;;5030028;28;20041;-50
2022/08/19 04:22:43;;;;;;;29.98;24.75;;;20.90;65.50;;;;;;5015080;28;20104;-51
2022/08/19 04:25:18;;;;;;;31.15;26.90;;;20.90;65.50;;;;;;5019860;28;20123;-50
2022/08/19 04:27:46;;;;;;;31.43;26.63;;;20.90;65.80;;;;;;5013631;28;20049;-48
2022/08/19 04:30:14;;;;;;;29.15;25.83;;;20.90;65.50;;;;;;5010210;28;20053;-50
2022/08/19 04:32:43;;;;;;;30.98;25.42;;;20.90;65.60;;;;;;5014433;28;20048;-51
2022/08/19 04:35:10;;;;;;;30.67;25.50;;;20.90;65.60;;;;;;5018500;28;20461;-53
2022/08/19 04:37:45;;;;;;;33.58;25.92;;;20.90;65.70;;;;;;5002864;28;20047;-50
2022/08/19 04:42:57;;;;;;;29.67;23.65;;;20.90;65.80;;;;;;5018197;28;20119;-52
2022/08/19 04:45:23;;;;;;;27.65;24.10;;;20.90;66.50;;;;;;5008636;28;20050;-51
2022/08/19 04:47:56;;;;;;;28.08;24.45;;;20.90;66.10;;;;;;5006187;28;20088;-49
2022/08/19 04:50:26;;;;;;;29.58;24.52;;;20.90;66.60;;;;;;5005200;28;20042;-51
2022/08/19 04:52:55;;;;;;;28.25;23.60;;;20.90;66.30;;;;;;5008092;28;20045;-49
2022/08/19 04:55:21;;;;;;;27.05;23.17;;;20.90;66.20;;;;;;5017251;28;20080;-50
2022/08/19 04:57:48;;;;;;;29.88;24.05;;;20.90;66.30;;;;;;5010886;28;20045;-52
2022/08/19 05:00:15;;;;;;;27.30;23.33;;;20.90;66.40;;;;;;5011134;28;20044;-51
2022/08/19 05:02:42;;;;;;;28.38;23.25;;;20.90;66.40;;;;;;4995818;28;20549;-49
2022/08/19 05:05:09;;;;;;;25.92;21.73;;;21.00;66.40;;;;;;5011003;28;20041;-52
2022/08/19 05:07:36;;;;;;;29.00;22.65;;;21.00;66.60;;;;;;4991664;28;20054;-48
2022/08/19 05:10:05;;;;;;;26.67;22.77;;;21.00;66.60;;;;;;5006660;28;20046;-49
2022/08/19 05:12:32;;;;;;;26.08;21.38;;;21.00;66.80;;;;;;5012611;28;20042;-52
2022/08/19 05:15:00;;;;;;;26.20;21.77;;;21.00;66.60;;;;;;5006126;28;20095;-50
2022/08/19 05:17:27;;;;;;;27.38;23.45;;;21.00;66.50;;;;;;5006300;28;20069;-52
2022/08/19 05:22:47;;;;;;;27.35;22.20;;;21.10;66.60;;;;;;5008344;28;20478;-49
2022/08/19 05:25:18;;;;;;;26.83;21.98;;;21.10;66.50;;;;;;4998288;28;20562;-49
2022/08/19 05:27:45;;;;;;;26.42;23.08;;;21.10;66.80;;;;;;5007708;28;20042;-47
2022/08/19 05:30:13;;;;;;;28.38;23.52;;;21.10;66.50;;;;;;5013251;28;20128;-51
2022/08/19 05:32:40;;;;;;;31.88;26.02;;;21.20;66.80;;;;;;5012084;28;20048;-50
2022/08/19 05:35:08;;;;;;;28.35;24.45;;;21.20;66.90;;;;;;4997876;28;20042;-50
2022/08/19 05:37:34;;;;;;;32.05;25.90;;;21.20;66.90;;;;;;5006236;28;20065;-53
2022/08/19 05:40:03;;;;;;;32.47;25.67;;;21.20;67.00;;;;;;4989855;28;20454;-48
2022/08/19 05:42:30;;;;;;;29.52;25.10;;;21.20;67.10;;;;;;4998475;28;20121;-51
2022/08/19 05:44:57;;;;;;;30.65;25.90;;;21.20;67.00;;;;;;5006029;28;20045;-48
2022/08/19 05:47:23;;;;;;;32.63;24.90;;;21.20;67.00;;;;;;4998030;28;20457;-51
2022/08/19 05:49:50;;;;;;;33.78;24.92;;;21.20;67.10;;;;;;5010162;28;20858;-50
2022/08/19 05:52:18;;;;;;;33.95;26.15;;;21.20;67.10;;;;;;5023739;28;20057;-51
2022/08/19 05:54:47;;;;;;;31.98;25.77;;;21.30;67.30;;;;;;4991177;28;20038;-49
2022/08/19 05:57:18;;;;;;;30.23;25.48;;;21.30;67.40;;;;;;5016551;28;20033;-51
2022/08/19 05:59:51;;;;;;;31.90;26.60;;;21.30;67.40;;;;;;5011652;28;20417;-50
2022/08/19 06:02:19;;;;;;;32.10;26.50;;;21.30;67.40;;;;;;5004813;28;20069;-49
2022/08/19 06:04:46;;;;;;;33.33;27.08;;;21.30;67.40;;;;;;5012027;28;20066;-46
2022/08/19 06:07:12;;;;;;;34.90;27.17;;;21.30;67.50;;;;;;5020294;28;20076;-51
2022/08/19 06:09:42;;;;;;;35.22;27.38;;;21.40;67.60;;;;;;5019110;28;20051;-48
2022/08/19 06:12:34;;;;;;;33.30;25.67;;;21.40;67.70;;;;;;5018208;28;20046;-48
2022/08/19 06:15:05;;;;;;;33.67;28.45;;;21.40;67.90;;;;;;5013069;28;20050;-52
2022/08/19 06:17:34;;;;;;;34.85;28.10;;;21.50;67.70;;;;;;5012503;28;20104;-53
2022/08/19 06:20:03;;;;;;;37.63;29.48;;;21.50;67.60;;;;;;5012052;28;20034;-49
2022/08/19 06:22:30;;;;;;;38.55;29.17;;;21.50;67.70;;;;;;5011802;28;20572;-53
2022/08/19 06:24:57;;;;;;;35.20;27.88;;;21.50;67.90;;;;;;5009685;28;20057;-50
2022/08/19 06:27:24;;;;;;;38.53;29.15;;;21.60;67.90;;;;;;4993322;28;20046;-53
2022/08/19 06:29:51;;;;;;;40.85;29.63;;;21.60;67.90;;;;;;5011702;28;20076;-52
2022/08/19 06:32:18;;;;;;;42.30;29.50;;;21.70;67.80;;;;;;5014964;28;20069;-52
2022/08/19 06:34:46;;;;;;;44.28;30.23;;;21.70;67.60;;;;;;5011889;28;20045;-50
2022/08/19 06:37:13;;;;;;;40.33;30.65;;;21.70;67.50;;;;;;5011181;28;20034;-50
2022/08/19 06:39:42;;;;;;;39.72;29.75;;;21.80;67.50;;;;;;5014648;28;20061;-50
2022/08/19 06:42:11;;;;;;;41.55;30.17;;;21.80;67.70;;;;;;5027853;28;20395;-50
2022/08/19 06:44:41;;;;;;;39.10;29.20;;;21.80;67.50;;;;;;4992316;28;20060;-52
2022/08/19 06:47:18;;;;;;;38.47;29.15;;;21.90;67.40;;;;;;5022574;28;20510;-53
2022/08/19 06:50:02;;;;;;;42.88;31.60;;;21.90;67.60;;;;;;5012407;28;20081;-52
2022/08/19 06:52:33;;;;;;;43.60;30.00;;;22.00;67.70;;;;;;5012207;28;20053;-52
2022/08/19 06:55:03;;;;;;;41.75;30.17;;;22.10;67.40;;;;;;5023041;28;20104;-51
2022/08/19 06:57:32;;;;;;;38.20;29.85;;;22.20;67.10;;;;;;5032283;28;20401;-50
2022/08/19 07:00:02;;;;;;;40.25;30.13;;;22.30;66.70;;;;;;5019399;28;20093;-51
2022/08/19 07:02:29;;;;;;;40.88;30.92;;;22.40;66.70;;;;;;5019978;28;20045;-51
2022/08/19 07:04:57;;;;;;;35.72;27.15;;;22.50;66.40;;;;;;5023228;28;20674;-51
2022/08/19 07:07:28;;;;;;;37.63;29.02;;;22.50;66.30;;;;;;5024149;28;20049;-49
2022/08/19 07:09:54;;;;;;;41.33;29.40;;;22.50;65.80;;;;;;5011497;28;20057;-47
2022/08/19 07:12:32;;;;;;;41.40;28.73;;;22.60;65.60;;;;;;5019559;28;20056;-51
2022/08/19 07:15:03;;;;;;;38.88;29.10;;;22.60;65.50;;;;;;5018810;28;20072;-50
2022/08/19 07:17:29;;;;;;;41.58;29.02;;;22.60;65.40;;;;;;5012987;28;20042;-50
2022/08/19 07:19:56;;;;;;;41.60;30.05;;;22.60;65.40;;;;;;5008797;28;20136;-49
2022/08/19 07:22:31;;;;;;;42.40;30.35;;;22.50;65.70;;;;;;5011485;28;20421;-47
2022/08/19 07:24:58;;;;;;;40.22;29.38;;;22.60;65.50;;;;;;5010136;28;20057;-49
2022/08/19 07:27:25;;;;;;;40.40;30.50;;;22.50;65.40;;;;;;5009389;28;20054;-46
2022/08/19 07:29:53;;;;;;;40.65;29.50;;;22.50;65.50;;;;;;5010690;28;20065;-48
2022/08/19 07:32:22;;;;;;;38.88;29.23;;;22.50;65.70;;;;;;5011446;28;20410;-49
2022/08/19 07:34:49;;;;;;;42.88;29.08;;;22.50;65.40;;;;;;5007984;28;20050;-47
2022/08/19 07:37:16;;;;;;;38.85;28.15;;;22.60;65.50;;;;;;5012208;28;20042;-48
2022/08/19 07:39:42;;;;;;;39.50;28.90;;;22.60;65.60;;;;;;5005805;28;20132;-46
2022/08/19 07:42:11;;;;;;;40.72;30.45;;;22.60;65.40;;;;;;4994959;28;20046;-48
2022/08/19 07:44:42;;;;;;;46.33;31.42;;;22.60;65.50;;;;;;5010109;28;20057;-47
2022/08/19 07:47:17;;;;;;;38.97;30.02;;;22.70;65.70;;;;;;5010725;28;20046;-53
2022/08/19 07:50:07;;;;;;;39.40;28.85;;;22.70;65.40;;;;;;5015894;28;20133;-50
2022/08/19 07:52:34;;;;;;;38.60;27.90;;;22.70;65.30;;;;;;5015067;28;20042;-50
2022/08/19 07:55:03;;;;;;;38.30;28.45;;;22.80;65.50;;;;;;5010863;28;20096;-50
2022/08/19 07:57:30;;;;;;;35.95;25.13;;;22.80;65.30;;;;;;5008797;28;20058;-49
2022/08/19 07:59:57;;;;;;;33.58;25.05;;;22.80;65.10;;;;;;5019760;28;20069;-52
2022/08/19 08:02:23;;;;;;;27.45;20.40;;;22.90;64.80;;;;;;5023673;28;20044;-52
2022/08/19 08:10:21;;;;;;;24.05;17.83;;;23.00;63.80;;;;;;5019070;28;20564;-52
2022/08/19 08:12:50;;;;;;;24.35;17.10;;;23.00;63.60;;;;;;5011238;28;20053;-50
2022/08/19 08:15:38;;;;;;;20.05;16.08;;;23.00;63.40;;;;;;5007595;28;20093;-53
2022/08/19 08:18:09;;;;;;;19.85;15.15;;;23.10;62.90;;;;;;5018531;28;20096;-46
2022/08/19 08:20:36;;;;;;;19.67;15.02;;;23.10;63.00;;;;;;5022201;28;20045;-50
2022/08/19 08:25:49;;;;;;;24.77;16.17;;;23.10;62.60;;;;;;5009785;28;20116;-52
2022/08/19 08:28:17;;;;;;;22.95;17.15;;;23.10;62.40;;;;;;5016693;28;20056;-50
2022/08/19 08:30:47;;;;;;;19.33;14.43;;;23.10;62.30;;;;;;5015397;28;20049;-51
2022/08/19 08:33:19;;;;;;;18.27;14.38;;;23.20;62.30;;;;;;5010796;28;20060;-52
2022/08/19 08:36:07;;;;;;;15.85;13.18;;;23.20;62.30;;;;;;5011387;28;20049;-51
2022/08/19 08:38:35;;;;;;;17.48;12.70;;;23.30;62.20;;;;;;5021006;28;20049;-48
2022/08/19 08:41:19;;;;;;;16.88;12.93;;;23.30;61.80;;;;;;5029271;28;20037;-46
2022/08/19 08:43:50;;;;;;;20.30;13.73;;;23.30;61.30;;;;;;5030854;28;20041;-53
2022/08/19 08:46:25;;;;;;;19.97;13.03;;;23.40;61.60;;;;;;5013945;28;20042;-50
2022/08/19 08:49:20;;;;;;;15.63;11.75;;;23.40;61.80;;;;;;5019103;28;20221;-51
2022/08/19 08:51:55;;;;;;;14.65;11.18;;;23.40;61.40;;;;;;5031199;28;20053;-50
2022/08/19 08:54:50;;;;;;;16.35;11.27;;;23.50;61.60;;;;;;5015205;28;20128;-50
2022/08/19 08:57:33;;;;;;;13.80;10.75;;;23.50;60.80;;;;;;5020572;28;20046;-52
2022/08/19 09:00:16;;;;;;;12.13;8.95;;;23.60;60.60;;;;;;5027789;28;20045;-50
2022/08/19 09:02:44;;;;;;;10.15;9.00;;;23.60;60.10;;;;;;5025193;28;20092;-47
2022/08/19 09:05:20;;;;;;;12.82;8.57;;;23.70;59.90;;;;;;5021038;28;20118;-51
2022/08/19 09:08:20;;;;;;;13.77;8.35;;;23.70;60.00;;;;;;5022319;28;20048;-48
2022/08/19 09:10:52;;;;;;;14.15;10.02;;;23.80;60.10;;;;;;4984038;28;20053;-49
2022/08/19 09:13:32;;;;;;;14.20;9.52;;;23.80;59.70;;;;;;5006301;28;20586;-52
2022/08/19 09:16:11;;;;;;;12.90;9.93;;;23.90;59.60;;;;;;5019933;28;20037;-50
2022/08/19 09:18:45;;;;;;;15.60;10.55;;;23.90;59.60;;;;;;5024090;28;20034;-51
2022/08/19 09:21:13;;;;;;;14.20;10.07;;;24.00;59.60;;;;;;5026666;28;20045;-47
2022/08/19 09:23:40;;;;;;;17.50;11.90;;;24.10;59.70;;;;;;5010301;28;20042;-50
2022/08/19 09:26:15;;;;;;;17.65;11.73;;;24.10;59.80;;;;;;4999808;28;20049;-51
2022/08/19 09:28:44;;;;;;;15.98;13.45;;;24.20;59.60;;;;;;5009532;28;20046;-48
2022/08/19 09:31:17;;;;;;;15.32;13.27;;;24.30;59.70;;;;;;5008714;28;20162;-49
2022/08/19 09:33:45;;;;;;;19.98;13.88;;;24.40;59.60;;;;;;5020730;28;20037;-49
2022/08/19 09:36:14;;;;;;;18.63;14.40;;;24.40;59.40;;;;;;5021584;28;20378;-52
2022/08/19 09:39:01;;;;;;;19.58;14.38;;;24.50;59.20;;;;;;5002220;28;20129;-53
2022/08/19 09:41:28;;;;;;;17.05;14.00;;;24.60;58.80;;;;;;5011137;28;20046;-47
2022/08/19 09:43:58;;;;;;;19.75;15.15;;;24.70;58.70;;;;;;5018609;28;20044;-48
2022/08/19 09:46:28;;;;;;;18.45;13.90;;;24.80;58.60;;;;;;5009983;28;20050;-49
2022/08/19 09:48:58;;;;;;;17.02;13.52;;;24.90;58.80;;;;;;5012547;28;20045;-49
2022/08/19 09:51:32;;;;;;;20.50;16.75;;;24.90;58.50;;;;;;5019227;28;20045;-49
2022/08/19 09:54:02;;;;;;;19.20;14.18;;;25.00;58.60;;;;;;5022225;28;20046;-53
2022/08/19 09:56:31;;;;;;;18.63;14.38;;;25.10;58.10;;;;;;5033405;28;20033;-52
2022/08/19 09:59:03;;;;;;;18.52;14.88;;;25.10;58.10;;;;;;5029975;28;20084;-50
2022/08/19 10:01:31;;;;;;;18.33;15.35;;;25.20;57.70;;;;;;4998316;28;20068;-50
2022/08/19 10:03:59;;;;;;;23.90;15.50;;;25.30;57.60;;;;;;5021292;28;20048;-48
2022/08/19 10:06:31;;;;;;;15.60;13.90;;;25.40;57.30;;;;;;5033354;28;20559;-48
2022/08/19 10:09:13;;;;;;;19.23;15.40;;;25.50;57.60;;;;;;5019065;28;20046;-49
2022/08/19 10:11:42;;;;;;;19.55;14.48;;;25.70;57.00;;;;;;5022966;28;20409;-46
2022/08/19 10:14:22;;;;;;;15.68;13.98;;;25.80;56.90;;;;;;5015914;28;20409;-49
2022/08/19 10:16:50;;;;;;;17.88;14.25;;;26.00;56.50;;;;;;5033418;28;20045;-51
2022/08/19 10:19:21;;;;;;;16.98;14.07;;;26.10;56.50;;;;;;5018738;28;20383;-46
2022/08/19 10:21:53;;;;;;;17.63;13.38;;;26.30;56.20;;;;;;5026360;28;20502;-52
2022/08/19 10:24:27;;;;;;;16.35;14.02;;;26.40;55.80;;;;;;5000681;28;20048;-51
2022/08/19 10:26:54;;;;;;;15.38;12.77;;;26.50;54.90;;;;;;5008802;28;20042;-50
2022/08/19 10:29:27;;;;;;;15.27;13.30;;;26.50;54.60;;;;;;5005915;28;20061;-49
2022/08/19 10:32:04;;;;;;;16.48;12.52;;;26.60;54.10;;;;;;5013725;28;20068;-51
2022/08/19 10:34:36;;;;;;;13.48;12.07;;;26.60;53.90;;;;;;5004963;28;20045;-51
2022/08/19 10:37:17;;;;;;;13.02;10.82;;;26.70;54.00;;;;;;5005296;28;20037;-51
2022/08/19 10:39:57;;;;;;;14.13;11.48;;;26.80;53.40;;;;;;5015819;28;20045;-49
2022/08/19 10:42:23;;;;;;;16.45;11.32;;;26.80;53.40;;;;;;5012078;28;20070;-52
2022/08/19 10:44:50;;;;;;;13.50;12.10;;;26.90;53.00;;;;;;5008222;28;20824;-50
2022/08/19 10:47:18;;;;;;;10.90;9.77;;;26.90;52.60;;;;;;5002600;28;20570;-51
2022/08/19 10:52:44;;;;;;;10.52;9.43;;;27.20;52.50;;;;;;5007881;28;20046;-51
2022/08/19 10:58:16;;;;;;;14.05;10.82;;;27.30;51.70;;;;;;5014082;28;20092;-51
2022/08/19 11:00:50;;;;;;;12.90;10.40;;;27.40;51.20;;;;;;5025993;28;20080;-48
2022/08/19 11:03:20;;;;;;;13.25;10.10;;;27.50;51.30;;;;;;5023132;28;20037;-48
2022/08/19 11:05:48;;;;;;;9.82;8.82;;;27.50;50.90;;;;;;5012088;28;20092;-48
2022/08/19 11:08:15;;;;;;;12.85;10.13;;;27.50;50.70;;;;;;5025531;28;20058;-50
2022/08/19 11:10:53;;;;;;;10.43;9.07;;;27.60;50.60;;;;;;5028185;28;20471;-53
2022/08/19 11:13:19;;;;;;;10.32;8.77;;;27.60;50.50;;;;;;5032180;28;20437;-51
2022/08/19 11:15:47;;;;;;;12.27;9.93;;;27.60;50.70;;;;;;5012677;28;20096;-49
2022/08/19 11:18:13;;;;;;;9.35;8.45;;;27.60;50.40;;;;;;5014530;28;20044;-46
2022/08/19 11:20:41;;;;;;;8.90;7.90;;;27.60;50.00;;;;;;5011751;28;20030;-50
2022/08/19 11:23:07;;;;;;;11.02;7.82;;;27.70;49.90;;;;;;5009751;28;20037;-48
2022/08/19 11:25:35;;;;;;;8.20;7.40;;;27.60;49.70;;;;;;5008321;28;20045;-50
2022/08/19 11:28:01;;;;;;;10.43;7.78;;;27.60;49.00;;;;;;4994643;28;20115;-49
2022/08/19 11:30:28;;;;;;;7.75;6.90;;;27.60;48.90;;;;;;4993410;28;20046;-53
2022/08/19 11:32:57;;;;;;;8.38;7.38;;;27.60;49.00;;;;;;4992414;28;20128;-50
2022/08/19 11:35:24;;;;;;;9.65;8.02;;;27.60;49.00;;;;;;5011343;28;20096;-49
2022/08/19 11:37:50;;;;;;;9.30;7.03;;;27.60;49.10;;;;;;5012291;28;20088;-49
2022/08/19 11:40:17;;;;;;;8.75;7.72;;;27.60;49.20;;;;;;5010250;28;20041;-49
2022/08/19 11:42:56;;;;;;;8.15;6.53;;;27.60;49.00;;;;;;5012151;28;20042;-47
2022/08/19 11:45:25;;;;;;;6.60;5.82;;;27.70;49.20;;;;;;5015522;28;20077;-46
2022/08/19 11:47:52;;;;;;;10.73;6.70;;;27.80;48.90;;;;;;5023817;28;20065;-50
2022/08/19 11:50:20;;;;;;;6.35;5.75;;;27.90;48.10;;;;;;5015277;28;20575;-49
2022/08/19 11:52:49;;;;;;;15.63;5.55;;;28.00;47.10;;;;;;5016458;28;20052;-52
2022/08/19 11:55:16;;;;;;;5.15;4.65;;;28.10;46.60;;;;;;4997790;28;20100;-50
2022/08/19 11:57:43;;;;;;;5.80;4.53;;;28.10;45.80;;;;;;5011947;28;20046;-52
2022/08/19 12:00:14;;;;;;;7.20;5.32;;;28.10;45.30;;;;;;5008389;28;20499;-51
2022/08/19 12:02:40;;;;;;;5.57;4.78;;;28.00;44.80;;;;;;5017079;28;20037;-51
2022/08/19 12:05:07;;;;;;;6.80;5.32;;;28.00;45.50;;;;;;5016250;28;20558;-52
2022/08/19 12:07:39;;;;;;;6.60;5.38;;;28.00;46.30;;;;;;5003520;28;20041;-47
2022/08/19 12:10:06;;;;;;;5.43;4.80;;;28.00;45.70;;;;;;5003705;28;20096;-47
2022/08/19 12:12:34;;;;;;;5.55;3.83;;;28.00;45.30;;;;;;4999437;28;20040;-53
2022/08/19 12:15:02;;;;;;;5.05;4.47;;;28.00;45.00;;;;;;5011559;28;20108;-51
2022/08/19 12:17:30;;;;;;;5.03;4.05;;;28.00;44.90;;;;;;5029799;28;20041;-51
2022/08/19 12:19:57;;;;;;;4.90;4.38;;;28.10;45.20;;;;;;5007365;28;20034;-47
2022/08/19 12:22:24;;;;;;;5.15;3.80;;;28.10;44.80;;;;;;5023601;28;20068;-50
2022/08/19 12:24:53;;;;;;;3.55;3.22;;;28.10;44.80;;;;;;5014662;28;20046;-51
2022/08/19 12:27:19;;;;;;;8.30;5.13;;;28.20;44.90;;;;;;5011628;28;20041;-53
2022/08/19 12:30:09;;;;;;;4.78;4.15;;;28.30;44.60;;;;;;5011064;28;20053;-51
2022/08/19 12:32:35;;;;;;;5.85;3.67;;;28.40;44.20;;;;;;5021554;28;20053;-51
2022/08/19 12:35:07;;;;;;;4.75;3.53;;;28.40;44.40;;;;;;5016040;28;20168;-48
2022/08/19 12:37:34;;;;;;;4.53;3.63;;;28.50;43.30;;;;;;5007983;28;20034;-50
2022/08/19 12:40:02;;;;;;;3.60;3.30;;;28.50;43.00;;;;;;5003706;28;20030;-47
2022/08/19 12:42:30;;;;;;;3.92;3.45;;;28.60;43.10;;;;;;5015847;28;20042;-48
2022/08/19 12:44:57;;;;;;;4.15;3.40;;;28.70;43.60;;;;;;5011306;28;20164;-52
2022/08/19 12:47:25;;;;;;;6.55;3.47;;;28.70;42.70;;;;;;5011035;28;20047;-49
2022/08/19 12:50:02;;;;;;;3.22;2.63;;;28.70;42.50;;;;;;5017030;28;20053;-48
2022/08/19 12:52:32;;;;;;;3.53;3.20;;;28.80;41.70;;;;;;5017526;28;20124;-49
2022/08/19 12:55:01;;;;;;;6.63;4.35;;;28.80;41.90;;;;;;5027696;28;20041;-51
2022/08/19 12:57:28;;;;;;;3.25;2.92;;;28.90;41.90;;;;;;4991216;28;20042;-51
2022/08/19 12:59:58;;;;;;;3.95;3.17;;;29.00;41.00;;;;;;5001708;28;20046;-50
2022/08/19 13:02:31;;;;;;;3.42;2.65;;;29.00;41.70;;;;;;5022889;28;20072;-51
2022/08/19 13:05:08;;;;;;;6.05;3.20;;;29.10;41.20;;;;;;5028859;28;20041;-48
2022/08/19 13:07:39;;;;;;;4.03;2.92;;;29.20;41.80;;;;;;5011114;28;20141;-51